createdAt,value
2022-11-11T00:01:21.681Z,6.55
2022-11-11T00:03:48.337Z,6.13
2022-11-11T00:06:16.667Z,6.43
2022-11-11T00:08:43.830Z,6.28
2022-11-11T00:11:12.540Z,5.55
2022-11-11T00:13:40.899Z,5.80
2022-11-11T00:16:16.347Z,5.88
2022-11-11T00:19:02.747Z,6.10
2022-11-11T00:21:49.000Z,6.15
2022-11-11T00:24:45.596Z,5.05
2022-11-11T00:27:13.331Z,5.05
2022-11-11T00:29:40.797Z,5.68
2022-11-11T00:32:24.469Z,5.65
2022-11-11T00:35:11.214Z,5.45
2022-11-11T00:37:38.490Z,5.47
2022-11-11T00:40:06.141Z,5.10
2022-11-11T00:42:32.850Z,5.40
2022-11-11T00:44:59.603Z,5.13
2022-11-11T00:47:44.966Z,5.32
2022-11-11T00:50:36.550Z,5.35
2022-11-11T00:53:11.008Z,5.25
2022-11-11T00:55:37.912Z,5.13
2022-11-11T00:58:04.939Z,5.15
2022-11-11T01:00:31.872Z,5.30
2022-11-11T01:02:59.404Z,5.05
2022-11-11T01:05:26.898Z,5.45
2022-11-11T01:07:54.061Z,5.55
2022-11-11T01:10:39.697Z,5.20
2022-11-11T01:13:15.324Z,4.78
2022-11-11T01:15:43.924Z,4.65
2022-11-11T01:18:12.754Z,5.22
2022-11-11T01:20:39.756Z,5.47
2022-11-11T01:23:08.938Z,4.63
2022-11-11T01:25:40.917Z,5.22
2022-11-11T01:28:08.911Z,5.63
2022-11-11T01:30:36.544Z,5.03
2022-11-11T01:33:03.685Z,4.85
2022-11-11T01:35:30.595Z,4.43
2022-11-11T01:37:59.081Z,5.30
2022-11-11T01:40:26.529Z,5.00
2022-11-11T01:43:15.685Z,5.30
2022-11-11T01:45:55.386Z,4.95
2022-11-11T01:48:55.213Z,5.10
2022-11-11T01:51:50.476Z,5.03
2022-11-11T01:54:26.492Z,5.68
2022-11-11T01:57:05.036Z,5.50
2022-11-11T01:59:33.786Z,5.28
2022-11-11T02:02:04.629Z,5.57
2022-11-11T02:04:50.149Z,5.20
2022-11-11T02:07:17.337Z,5.18
2022-11-11T02:09:46.311Z,5.07
2022-11-11T02:12:32.308Z,5.20
2022-11-11T02:15:01.454Z,5.20
2022-11-11T02:17:30.644Z,5.40
2022-11-11T02:20:00.261Z,5.20
2022-11-11T02:22:52.882Z,5.25
2022-11-11T02:25:23.286Z,5.13
2022-11-11T02:27:52.082Z,5.10
2022-11-11T02:30:21.400Z,4.97
2022-11-11T02:32:51.013Z,5.10
2022-11-11T02:35:23.713Z,5.30
2022-11-11T02:37:53.072Z,5.10
2022-11-11T02:40:24.630Z,4.88
2022-11-11T02:42:51.985Z,4.95
2022-11-11T02:45:19.011Z,4.65
2022-11-11T02:47:45.911Z,5.32
2022-11-11T02:50:12.810Z,5.45
2022-11-11T02:52:39.601Z,6.38
2022-11-11T02:55:07.177Z,5.50
2022-11-11T02:57:34.354Z,4.85
2022-11-11T03:00:01.905Z,5.80
2022-11-11T03:02:29.585Z,5.55
2022-11-11T03:04:57.279Z,5.07
2022-11-11T03:07:25.131Z,5.43
2022-11-11T03:09:52.295Z,5.65
2022-11-11T03:12:19.669Z,6.57
2022-11-11T03:14:46.624Z,5.63
2022-11-11T03:17:31.914Z,6.75
2022-11-11T03:20:18.585Z,7.38
2022-11-11T03:22:54.904Z,7.72
2022-11-11T03:25:40.776Z,7.38
2022-11-11T03:28:12.868Z,8.23
2022-11-11T03:30:43.146Z,7.82
2022-11-11T03:33:10.203Z,6.97
2022-11-11T03:35:38.036Z,6.40
2022-11-11T03:38:25.512Z,5.65
2022-11-11T03:40:54.190Z,5.72
2022-11-11T03:43:23.155Z,5.22
2022-11-11T03:45:50.741Z,5.40
2022-11-11T03:48:17.569Z,5.20
2022-11-11T03:50:44.660Z,4.95
2022-11-11T03:53:11.455Z,5.60
2022-11-11T03:55:38.173Z,4.55
2022-11-11T03:58:05.122Z,4.22
2022-11-11T04:00:32.113Z,4.68
2022-11-11T04:03:31.628Z,4.38
2022-11-11T04:06:17.065Z,4.45
2022-11-11T04:09:02.928Z,4.28
2022-11-11T04:11:41.312Z,3.90
2022-11-11T04:14:29.211Z,4.40
2022-11-11T04:16:56.403Z,4.28
2022-11-11T04:19:41.745Z,4.55
2022-11-11T04:22:08.746Z,4.05
2022-11-11T04:24:54.002Z,4.35
2022-11-11T04:27:21.484Z,4.53
2022-11-11T04:29:50.140Z,4.25
2022-11-11T04:32:36.522Z,4.05
2022-11-11T04:35:08.927Z,4.25
2022-11-11T04:37:37.585Z,4.63
2022-11-11T04:40:23.398Z,3.88
2022-11-11T04:42:53.590Z,3.97
2022-11-11T04:45:29.138Z,3.95
2022-11-11T04:48:10.006Z,4.35
2022-11-11T04:50:42.211Z,4.15
2022-11-11T04:53:14.094Z,4.32
2022-11-11T04:56:00.931Z,4.43
2022-11-11T04:58:30.186Z,4.72
2022-11-11T05:00:56.908Z,5.53
2022-11-11T05:03:24.256Z,5.32
2022-11-11T05:06:15.043Z,5.53
2022-11-11T05:08:59.643Z,6.40
2022-11-11T05:14:15.193Z,5.38
2022-11-11T05:17:03.953Z,5.10
2022-11-11T05:19:49.364Z,6.00
2022-11-11T05:22:31.608Z,5.68
2022-11-11T05:25:16.924Z,5.57
2022-11-11T05:27:43.806Z,4.93
2022-11-11T05:30:12.431Z,5.18
2022-11-11T05:32:39.464Z,4.97
2022-11-11T05:35:07.056Z,5.07
2022-11-11T05:37:34.193Z,5.25
2022-11-11T05:40:00.959Z,5.47
2022-11-11T05:42:28.162Z,5.68
2022-11-11T05:44:54.900Z,4.88
2022-11-11T05:47:21.545Z,4.93
2022-11-11T05:49:48.209Z,5.13
2022-11-11T05:52:19.420Z,5.28
2022-11-11T05:54:46.423Z,5.20
2022-11-11T05:57:13.181Z,5.20
2022-11-11T05:59:39.980Z,5.97
2022-11-11T06:02:07.248Z,6.03
2022-11-11T06:04:35.641Z,6.95
2022-11-11T06:07:02.599Z,5.30
2022-11-11T06:09:29.481Z,5.82
2022-11-11T06:11:56.348Z,5.15
2022-11-11T06:14:23.548Z,5.60
2022-11-11T06:16:50.242Z,5.35
2022-11-11T06:19:16.930Z,5.95
2022-11-11T06:22:12.884Z,6.00
2022-11-11T06:24:39.522Z,5.70
2022-11-11T06:27:06.253Z,5.47
2022-11-11T06:29:33.355Z,5.45
2022-11-11T06:32:00.382Z,5.80
2022-11-11T06:34:27.486Z,6.50
2022-11-11T06:36:54.246Z,6.90
2022-11-11T06:39:21.206Z,6.22
2022-11-11T06:41:47.983Z,6.90
2022-11-11T06:44:14.685Z,6.05
2022-11-11T06:46:41.464Z,5.72
2022-11-11T06:49:08.106Z,6.43
2022-11-11T06:51:34.826Z,6.72
2022-11-11T06:54:01.819Z,5.82
2022-11-11T06:56:28.775Z,5.88
2022-11-11T06:58:55.458Z,5.20
2022-11-11T07:01:22.160Z,5.55
2022-11-11T07:03:49.477Z,5.55
2022-11-11T07:06:16.366Z,5.05
2022-11-11T07:08:44.757Z,5.05
2022-11-11T07:11:18.381Z,6.05
2022-11-11T07:13:45.905Z,5.75
2022-11-11T07:16:12.677Z,6.70
2022-11-11T07:18:39.547Z,7.20
2022-11-11T07:21:06.800Z,7.30
2022-11-11T07:23:33.546Z,6.85
2022-11-11T07:26:00.285Z,6.95
2022-11-11T07:28:27.431Z,6.18
2022-11-11T07:30:54.752Z,7.10
2022-11-11T07:33:24.474Z,7.13
2022-11-11T07:35:51.709Z,7.10
2022-11-11T07:38:18.403Z,7.07
2022-11-11T07:40:45.726Z,6.70
2022-11-11T07:43:12.431Z,6.93
2022-11-11T07:45:39.145Z,6.70
2022-11-11T07:48:05.935Z,7.03
2022-11-11T07:50:32.701Z,7.40
2022-11-11T07:52:59.473Z,6.80
2022-11-11T07:55:26.241Z,7.15
2022-11-11T07:57:53.556Z,6.75
2022-11-11T08:00:20.426Z,6.47
2022-11-11T08:02:48.722Z,6.75
2022-11-11T08:05:15.960Z,6.32
2022-11-11T08:07:45.620Z,6.97
2022-11-11T08:10:12.645Z,7.13
2022-11-11T08:12:58.082Z,7.82
2022-11-11T08:15:24.838Z,7.65
2022-11-11T08:17:51.594Z,7.07
2022-11-11T08:20:19.077Z,7.25
2022-11-11T08:23:07.014Z,7.03
2022-11-11T08:25:32.808Z,6.85
2022-11-11T08:28:01.358Z,6.97
2022-11-11T08:30:28.108Z,6.70
2022-11-11T08:35:49.814Z,6.82
2022-11-11T08:38:17.124Z,7.82
2022-11-11T08:40:43.863Z,8.30
2022-11-11T08:43:11.087Z,7.82
2022-11-11T08:45:38.476Z,7.68
2022-11-11T08:48:05.436Z,6.70
2022-11-11T08:50:32.328Z,6.95
2022-11-11T08:52:59.091Z,6.80
2022-11-11T08:55:25.832Z,6.47
2022-11-11T08:58:00.043Z,6.55
2022-11-11T09:02:53.778Z,5.65
2022-11-11T09:05:20.785Z,6.05
2022-11-11T09:07:47.477Z,12.23
2022-11-11T09:10:14.344Z,6.20
2022-11-11T09:12:41.306Z,5.90
2022-11-11T09:15:08.579Z,7.07
2022-11-11T09:17:35.434Z,7.25
2022-11-11T09:20:02.233Z,6.57
2022-11-11T09:22:29.184Z,5.40
2022-11-11T09:24:56.513Z,5.15
2022-11-11T09:27:23.387Z,4.90
2022-11-11T09:29:50.237Z,4.63
2022-11-11T09:32:17.099Z,4.95
2022-11-11T09:34:44.044Z,5.15
2022-11-11T09:37:10.833Z,4.95
2022-11-11T09:39:37.618Z,4.63
2022-11-11T09:42:13.861Z,4.43
2022-11-11T09:45:13.951Z,4.25
2022-11-11T09:48:19.364Z,4.10
2022-11-11T09:53:29.256Z,4.53
2022-11-11T09:56:30.745Z,4.30
2022-11-11T09:59:08.986Z,3.65
2022-11-11T10:01:43.022Z,4.30
2022-11-11T10:04:50.020Z,4.10
2022-11-11T10:07:27.922Z,3.50
2022-11-11T10:09:59.771Z,3.67
2022-11-11T10:12:41.987Z,3.63
2022-11-11T10:15:14.417Z,3.03
2022-11-11T10:17:50.729Z,3.50
2022-11-11T10:20:26.307Z,3.38
2022-11-11T10:23:01.344Z,3.40
2022-11-11T10:25:28.538Z,3.40
2022-11-11T10:27:59.729Z,3.40
2022-11-11T10:30:31.845Z,3.05
2022-11-11T10:33:12.772Z,2.83
2022-11-11T10:35:40.314Z,3.40
2022-11-11T10:38:33.910Z,3.17
2022-11-11T10:41:20.943Z,3.03
2022-11-11T10:43:48.099Z,2.97
2022-11-11T10:46:28.022Z,2.83
2022-11-11T10:49:03.322Z,3.28
2022-11-11T10:51:59.775Z,4.28
2022-11-11T10:54:43.641Z,3.88
2022-11-11T10:57:16.445Z,3.10
2022-11-11T11:00:09.614Z,2.70
2022-11-11T11:03:05.577Z,2.35
2022-11-11T11:05:58.935Z,2.53
2022-11-11T11:08:30.865Z,2.58
2022-11-11T11:10:59.614Z,2.20
2022-11-11T11:13:41.107Z,2.25
2022-11-11T11:16:13.963Z,1.60
2022-11-11T11:18:43.431Z,1.40
2022-11-11T11:21:10.773Z,1.05
2022-11-11T11:23:44.937Z,1.08
2022-11-11T11:26:14.178Z,0.85
2022-11-11T11:28:57.068Z,0.98
2022-11-11T11:31:38.096Z,0.98
2022-11-11T11:34:05.457Z,0.98
2022-11-11T11:36:32.505Z,1.02
2022-11-11T11:39:00.853Z,0.70
2022-11-11T11:41:45.049Z,0.85
2022-11-11T11:44:31.190Z,0.90
2022-11-11T11:47:11.084Z,0.90
2022-11-11T11:50:10.773Z,0.80
2022-11-11T11:53:29.252Z,0.70
2022-11-11T11:56:14.457Z,0.57
2022-11-11T11:59:26.358Z,0.80
2022-11-11T12:02:30.496Z,0.85
2022-11-11T12:08:43.561Z,0.85
2022-11-11T12:11:40.114Z,0.60
2022-11-11T12:14:30.615Z,0.65
2022-11-11T12:17:31.534Z,0.90
2022-11-11T12:23:14.927Z,0.70
2022-11-11T12:26:13.868Z,0.70
2022-11-11T12:29:10.540Z,0.90
2022-11-11T12:31:57.480Z,0.80
2022-11-11T12:34:41.985Z,0.80
2022-11-11T12:37:22.444Z,0.73
2022-11-11T12:40:20.295Z,0.80
2022-11-11T12:43:16.690Z,0.85
2022-11-11T12:45:59.512Z,0.68
2022-11-11T12:52:47.220Z,0.70
2022-11-11T12:55:27.084Z,0.60
2022-11-11T12:58:42.271Z,0.80
2022-11-11T13:01:50.374Z,0.80
2022-11-11T13:04:58.571Z,0.70
2022-11-11T13:07:57.302Z,0.65
2022-11-11T13:10:32.307Z,1.05
2022-11-11T13:13:35.651Z,0.70
2022-11-11T13:16:02.874Z,0.90
2022-11-11T13:18:44.108Z,0.90
2022-11-11T13:21:16.792Z,0.77
2022-11-11T13:23:43.784Z,0.82
2022-11-11T13:26:35.559Z,0.90
2022-11-11T13:29:35.952Z,0.70
2022-11-11T13:32:04.595Z,0.70
2022-11-11T13:34:34.923Z,1.10
2022-11-11T13:37:04.914Z,0.95
2022-11-11T13:39:35.161Z,0.70
2022-11-11T13:42:03.416Z,0.70
2022-11-11T13:44:54.886Z,0.80
2022-11-11T13:47:24.896Z,1.02
2022-11-11T13:49:54.921Z,1.05
2022-11-11T13:52:28.140Z,1.00
2022-11-11T13:55:03.900Z,0.80
2022-11-11T13:57:33.435Z,1.20
2022-11-11T14:00:07.254Z,1.02
2022-11-11T14:02:35.446Z,1.60
2022-11-11T14:05:02.234Z,0.82
2022-11-11T14:08:04.795Z,1.02
2022-11-11T14:10:55.549Z,1.05
2022-11-11T14:13:22.643Z,1.13
2022-11-11T14:15:52.979Z,0.90
2022-11-11T14:18:36.744Z,0.90
2022-11-11T14:21:03.523Z,1.13
2022-11-11T14:23:35.969Z,0.90
2022-11-11T14:26:29.523Z,1.00
2022-11-11T14:29:05.882Z,0.90
2022-11-11T14:32:14.434Z,0.90
2022-11-11T14:34:53.519Z,1.15
2022-11-11T14:37:46.457Z,1.42
2022-11-11T14:40:28.499Z,1.90
2022-11-11T14:42:55.654Z,1.98
2022-11-11T14:45:52.573Z,2.20
2022-11-11T14:48:54.540Z,2.85
2022-11-11T14:51:59.849Z,2.75
2022-11-11T14:57:21.360Z,2.50
2022-11-11T14:59:48.580Z,3.80
2022-11-11T15:02:24.454Z,3.55
2022-11-11T15:04:51.176Z,4.70
2022-11-11T15:08:31.582Z,2.90
2022-11-11T15:11:17.347Z,4.20
2022-11-11T15:14:17.529Z,2.70
2022-11-11T15:17:15.841Z,2.22
2022-11-11T15:23:35.551Z,2.55
2022-11-11T15:26:12.024Z,2.10
2022-11-11T15:29:06.551Z,2.53
2022-11-11T15:31:45.289Z,3.15
2022-11-11T15:34:37.864Z,2.80
2022-11-11T15:37:14.262Z,3.05
2022-11-11T15:39:46.087Z,3.30
2022-11-11T15:42:29.673Z,3.00
2022-11-11T15:45:00.480Z,3.03
2022-11-11T15:47:34.247Z,2.97
2022-11-11T15:50:02.095Z,2.72
2022-11-11T15:52:35.120Z,2.80
2022-11-11T15:55:19.246Z,4.07
2022-11-11T15:57:47.789Z,4.85
2022-11-11T16:00:45.685Z,5.28
2022-11-11T16:03:17.218Z,4.70
2022-11-11T16:05:45.945Z,3.13
2022-11-11T16:08:20.792Z,4.20
2022-11-11T16:10:54.523Z,3.25
2022-11-11T16:13:23.599Z,3.63
2022-11-11T16:16:02.568Z,3.60
2022-11-11T16:18:58.879Z,3.70
2022-11-11T16:21:31.558Z,3.50
2022-11-11T16:23:59.251Z,3.95
2022-11-11T16:26:27.778Z,4.55
2022-11-11T16:28:58.411Z,4.50
2022-11-11T16:31:44.870Z,8.05
2022-11-11T16:34:46.057Z,7.88
2022-11-11T16:37:16.035Z,6.47
2022-11-11T16:39:44.437Z,7.03
2022-11-11T16:42:26.704Z,6.55
2022-11-11T16:44:59.151Z,5.65
2022-11-11T16:47:44.042Z,4.88
2022-11-11T16:50:22.849Z,4.68
2022-11-11T16:52:54.652Z,4.95
2022-11-11T16:55:44.860Z,5.10
2022-11-11T16:58:22.474Z,5.07
2022-11-11T17:00:50.540Z,4.25
2022-11-11T17:03:20.749Z,3.95
2022-11-11T17:05:51.482Z,3.67
2022-11-11T17:08:40.495Z,3.65
2022-11-11T17:11:31.221Z,5.35
2022-11-11T17:13:58.091Z,4.03
2022-11-11T17:16:25.049Z,4.18
2022-11-11T17:18:52.432Z,4.43
2022-11-11T17:21:19.824Z,5.55
2022-11-11T17:23:46.892Z,3.95
2022-11-11T17:26:13.899Z,3.67
2022-11-11T17:28:40.648Z,4.00
2022-11-11T17:31:10.613Z,3.60
2022-11-11T17:33:38.144Z,3.60
2022-11-11T17:36:06.088Z,3.78
2022-11-11T17:38:38.363Z,3.90
2022-11-11T17:41:06.196Z,3.70
2022-11-11T17:43:34.161Z,3.58
2022-11-11T17:46:02.618Z,3.88
2022-11-11T17:48:29.432Z,3.78
2022-11-11T17:50:56.964Z,5.40
2022-11-11T17:53:23.687Z,4.82
2022-11-11T17:55:51.225Z,4.32
2022-11-11T17:58:19.623Z,4.20
2022-11-11T18:00:47.037Z,4.88
2022-11-11T18:03:14.115Z,5.68
2022-11-11T18:05:40.918Z,5.78
2022-11-11T18:08:07.597Z,10.85
2022-11-11T18:10:34.373Z,6.50
2022-11-11T18:13:01.065Z,6.95
2022-11-11T18:15:31.563Z,6.90
2022-11-11T18:17:58.225Z,8.60
2022-11-11T18:20:25.209Z,12.43
2022-11-11T18:22:55.853Z,10.00
2022-11-11T18:25:22.689Z,8.50
2022-11-11T18:27:49.732Z,5.60
2022-11-11T18:30:17.572Z,6.10
2022-11-11T18:32:46.298Z,6.47
2022-11-11T18:35:13.713Z,5.35
2022-11-11T18:37:46.220Z,7.20
2022-11-11T18:40:13.757Z,7.82
2022-11-11T18:42:40.743Z,7.45
2022-11-11T18:45:07.920Z,5.90
2022-11-11T18:47:34.600Z,4.43
2022-11-11T18:50:01.488Z,4.93
2022-11-11T18:52:28.484Z,4.40
2022-11-11T18:54:55.324Z,4.10
2022-11-11T18:57:22.189Z,4.20
2022-11-11T18:59:49.653Z,4.38
2022-11-11T19:02:16.387Z,4.30
2022-11-11T19:04:43.231Z,6.40
2022-11-11T19:07:09.985Z,5.20
2022-11-11T19:09:36.888Z,3.97
2022-11-11T19:12:03.943Z,7.95
2022-11-11T19:14:31.339Z,4.25
2022-11-11T19:16:58.606Z,5.38
2022-11-11T19:19:25.326Z,6.18
2022-11-11T19:21:52.465Z,7.35
2022-11-11T19:24:19.434Z,5.75
2022-11-11T19:26:47.823Z,6.63
2022-11-11T19:29:14.733Z,5.13
2022-11-11T19:31:41.483Z,4.07
2022-11-11T19:34:10.752Z,3.80
2022-11-11T19:36:37.462Z,5.78
2022-11-11T19:39:05.157Z,4.15
2022-11-11T19:41:32.162Z,3.70
2022-11-11T19:43:59.029Z,3.85
2022-11-11T19:46:28.020Z,3.92
2022-11-11T19:48:56.612Z,3.67
2022-11-11T19:51:25.351Z,3.90
2022-11-11T19:53:56.632Z,4.10
2022-11-11T19:56:24.863Z,3.78
2022-11-11T19:58:51.787Z,4.18
2022-11-11T20:01:22.269Z,4.03
2022-11-11T20:03:49.549Z,3.85
2022-11-11T20:06:22.344Z,4.50
2022-11-11T20:08:49.251Z,4.00
2022-11-11T20:11:16.063Z,4.10
2022-11-11T20:13:43.014Z,3.92
2022-11-11T20:16:09.943Z,4.05
2022-11-11T20:18:37.175Z,4.10
2022-11-11T20:21:05.686Z,3.88
2022-11-11T20:23:36.016Z,4.05
2022-11-11T20:26:07.788Z,4.07
2022-11-11T20:28:34.878Z,3.88
2022-11-11T20:31:13.493Z,4.05
2022-11-11T20:33:40.381Z,4.30
2022-11-11T20:36:10.036Z,4.40
2022-11-11T20:38:37.355Z,5.15
2022-11-11T20:41:06.953Z,5.22
2022-11-11T20:43:35.427Z,6.18
2022-11-11T20:46:10.110Z,5.72
2022-11-11T20:48:37.786Z,6.00
2022-11-11T20:51:06.732Z,5.05
2022-11-11T20:53:33.580Z,4.97
2022-11-11T20:56:05.471Z,4.28
2022-11-11T20:58:36.552Z,4.07
2022-11-11T21:01:27.805Z,4.35
2022-11-11T21:03:58.856Z,4.35
2022-11-11T21:06:26.732Z,3.83
2022-11-11T21:08:53.566Z,4.70
2022-11-11T21:11:21.842Z,5.53
2022-11-11T21:13:48.750Z,4.90
2022-11-11T21:16:21.356Z,5.35
2022-11-11T21:18:48.911Z,4.78
2022-11-11T21:21:24.405Z,4.55
2022-11-11T21:24:04.832Z,4.32
2022-11-11T21:26:32.259Z,4.13
2022-11-11T21:28:59.190Z,4.70
2022-11-11T21:31:28.830Z,4.22
2022-11-11T21:34:01.089Z,4.30
2022-11-11T21:36:30.656Z,4.80
2022-11-11T21:38:58.170Z,4.60
2022-11-11T21:41:26.418Z,4.65
2022-11-11T21:43:54.319Z,5.05
2022-11-11T21:46:26.907Z,5.40
2022-11-11T21:48:55.098Z,5.90
2022-11-11T21:51:30.195Z,6.40
2022-11-11T21:54:07.480Z,6.25
2022-11-11T21:56:35.703Z,6.93
2022-11-11T21:59:04.818Z,7.15
2022-11-11T22:01:42.006Z,8.18
2022-11-11T22:04:13.238Z,9.57
2022-11-11T22:06:40.437Z,7.75
2022-11-11T22:09:08.125Z,7.80
2022-11-11T22:11:36.712Z,7.80
2022-11-11T22:14:04.908Z,8.55
2022-11-11T22:16:34.402Z,8.85
2022-11-11T22:19:04.249Z,8.80
2022-11-11T22:21:37.457Z,9.02
2022-11-11T22:24:06.643Z,9.45
2022-11-11T22:26:35.999Z,8.98
2022-11-11T22:29:04.143Z,8.77
2022-11-11T22:31:31.842Z,8.98
2022-11-11T22:34:01.091Z,9.20
2022-11-11T22:36:29.333Z,9.85
2022-11-11T22:38:56.572Z,10.77
2022-11-11T22:41:25.755Z,9.55
2022-11-11T22:43:59.616Z,9.90
2022-11-11T22:46:27.689Z,9.63
2022-11-11T22:48:59.011Z,10.13
2022-11-11T22:51:28.175Z,9.85
2022-11-11T22:54:03.397Z,9.07
2022-11-11T22:56:30.932Z,9.40
2022-11-11T22:58:58.458Z,8.68
2022-11-11T23:01:30.651Z,8.98
2022-11-11T23:03:59.905Z,8.88
2022-11-11T23:06:40.227Z,8.38
2022-11-11T23:09:07.944Z,8.18
2022-11-11T23:11:36.292Z,7.65
2022-11-11T23:14:05.603Z,8.05
2022-11-11T23:16:32.754Z,8.02
2022-11-11T23:19:00.727Z,8.10
2022-11-11T23:21:28.919Z,7.38
2022-11-11T23:23:57.302Z,7.50
2022-11-11T23:26:27.303Z,6.70
2022-11-11T23:28:54.423Z,6.68
2022-11-11T23:31:24.069Z,7.40
2022-11-11T23:33:53.241Z,7.15
2022-11-11T23:36:22.200Z,8.15
2022-11-11T23:38:50.087Z,8.50
2022-11-11T23:41:16.989Z,7.82
2022-11-11T23:43:43.809Z,8.88
2022-11-11T23:46:11.007Z,9.00
2022-11-11T23:48:38.296Z,9.00
2022-11-11T23:51:05.485Z,8.68
2022-11-11T23:53:33.184Z,8.27
2022-11-11T23:55:59.979Z,8.02
2022-11-11T23:58:27.399Z,8.07
